Terminal Aerodrome Forecast
Issued by NWS

Home | Current Version | Previous Version | Text Only | Print | Product List | Glossary On
Versions: 1 2 3 4 5 6 7 8 9 10 11 12 13 14 15 16 17 18 19 20 21 22 23 24 25 26 27 28 29 30 31 32 33 34 35 36
000
FTUS43 KGRB 071139
TAFRHI
TAF
KRHI 071139Z 0712/0812 36006G14KT P6SM SCT020 BKN040
     FM071600 35010G15KT P6SM SCT025 SCT040
     FM072300 36005KT P6SM SKC
     FM080900 VRB03KT 4SM BR SKC=

USA.gov is the U.S. government's official web portal to all federal, state and local government web resources and services.